sensor_id;sensor_type;location;lat;lon;timestamp;pressure;altitude;pressure_sealevel;temperature;humidity
11302;BME280;5706;50.650;13.380;2023-03-25T11:21:44;90694.53;;;-140.63;54.36
11302;BME280;5706;50.650;13.380;2023-03-25T11:24:17;90746.75;;;-140.63;53.58
11302;BME280;5706;50.650;13.380;2023-03-25T11:26:47;90807.00;;;-140.63;54.57
11302;BME280;5706;50.650;13.380;2023-03-25T11:29:26;90640.31;;;-140.63;54.18
11302;BME280;5706;50.650;13.380;2023-03-25T11:32:04;90650.34;;;-140.63;49.70
11302;BME280;5706;50.650;13.380;2023-03-25T11:34:35;90704.59;;;-140.63;49.39
11302;BME280;5706;50.650;13.380;2023-03-25T11:37:15;90716.63;;;-140.63;49.81
11302;BME280;5706;50.650;13.380;2023-03-25T11:39:49;90708.59;;;-140.63;49.34
11302;BME280;5706;50.650;13.380;2023-03-25T11:42:28;90722.66;;;-140.63;49.31
11302;BME280;5706;50.650;13.380;2023-03-25T11:44:59;90762.81;;;-140.63;49.94
11302;BME280;5706;50.650;13.380;2023-03-25T11:47:30;90724.66;;;-140.63;49.85
11302;BME280;5706;50.650;13.380;2023-03-25T11:49:59;90710.59;;;-140.63;48.72
11302;BME280;5706;50.650;13.380;2023-03-25T11:52:35;90732.69;;;-140.63;49.44
11302;BME280;5706;50.650;13.380;2023-03-25T11:55:14;90680.47;;;-140.63;49.19
11302;BME280;5706;50.650;13.380;2023-03-25T11:57:45;90666.41;;;-140.63;49.55
11302;BME280;5706;50.650;13.380;2023-03-25T12:00:32;90652.38;;;-140.63;49.14
11302;BME280;5706;50.650;13.380;2023-03-25T12:03:05;90588.09;;;-140.63;50.57
11302;BME280;5706;50.650;13.380;2023-03-25T12:05:56;90642.31;;;-140.63;48.20
11302;BME280;5706;50.650;13.380;2023-03-25T12:08:29;90640.31;;;-140.63;48.63
11302;BME280;5706;50.650;13.380;2023-03-25T12:11:10;90664.41;;;-140.63;48.62
11302;BME280;5706;50.650;13.380;2023-03-25T12:13:50;90666.41;;;-140.63;49.08
11302;BME280;5706;50.650;13.380;2023-03-25T12:16:45;90616.22;;;-140.63;48.03
11302;BME280;5706;50.650;13.380;2023-03-25T12:19:23;90604.16;;;-140.63;47.16
11302;BME280;5706;50.650;13.380;2023-03-25T12:22:19;90562.00;;;-140.63;46.56
11302;BME280;5706;50.650;13.380;2023-03-25T12:25:12;90600.16;;;-140.63;46.60
11302;BME280;5706;50.650;13.380;2023-03-25T12:27:59;90588.09;;;-140.63;45.65
11302;BME280;5706;50.650;13.380;2023-03-25T12:30:51;90547.94;;;-140.63;47.37
11302;BME280;5706;50.650;13.380;2023-03-25T12:33:33;90535.88;;;-140.63;45.37
11302;BME280;5706;50.650;13.380;2023-03-25T12:36:19;90582.06;;;-140.63;45.47
11302;BME280;5706;50.650;13.380;2023-03-25T12:39:06;90620.22;;;-140.63;47.15
11302;BME280;5706;50.650;13.380;2023-03-25T12:41:53;90708.59;;;-140.63;49.46
11302;BME280;5706;50.650;13.380;2023-03-25T12:44:39;90698.56;;;-140.63;52.27
11302;BME280;5706;50.650;13.380;2023-03-25T12:47:22;90750.78;;;-140.63;53.14
11302;BME280;5706;50.650;13.380;2023-03-25T12:50:08;90598.13;;;-140.63;52.13
11302;BME280;5706;50.650;13.380;2023-03-25T12:52:53;90652.38;;;-140.63;51.44
11302;BME280;5706;50.650;13.380;2023-03-25T12:55:41;90572.03;;;-140.63;51.98
11302;BME280;5706;50.650;13.380;2023-03-25T12:58:37;90610.19;;;-140.63;49.58
11302;BME280;5706;50.650;13.380;2023-03-25T13:01:22;90638.31;;;-140.63;48.47
11302;BME280;5706;50.650;13.380;2023-03-25T13:07:00;90622.25;;;-140.63;48.13
11302;BME280;5706;50.650;13.380;2023-03-25T13:09:32;90664.41;;;-140.63;48.56
11302;BME280;5706;50.650;13.380;2023-03-25T13:12:08;90670.44;;;-140.63;48.64
11302;BME280;5706;50.650;13.380;2023-03-25T13:14:46;90626.25;;;-140.63;48.68
11302;BME280;5706;50.650;13.380;2023-03-25T13:17:26;90527.84;;;-140.63;49.01
11302;BME280;5706;50.650;13.380;2023-03-25T13:19:59;90590.09;;;-140.63;47.70
11302;BME280;5706;50.650;13.380;2023-03-25T13:22:33;90513.78;;;-140.63;46.45
11302;BME280;5706;50.650;13.380;2023-03-25T13:25:06;90459.56;;;-140.63;46.32
11302;BME280;5706;50.650;13.380;2023-03-25T13:27:43;90447.53;;;-140.63;45.20
11302;BME280;5706;50.650;13.380;2023-03-25T13:30:18;90441.50;;;-140.63;44.39
11302;BME280;5706;50.650;13.380;2023-03-25T13:32:53;90425.44;;;-140.63;43.91
11302;BME280;5706;50.650;13.380;2023-03-25T13:35:29;90445.53;;;-140.63;44.62
11302;BME280;5706;50.650;13.380;2023-03-25T13:38:08;90451.53;;;-140.63;43.51
11302;BME280;5706;50.650;13.380;2023-03-25T13:40:45;90453.56;;;-140.63;43.35
11302;BME280;5706;50.650;13.380;2023-03-25T13:43:23;90535.88;;;-140.63;43.63
11302;BME280;5706;50.650;13.380;2023-03-25T13:46:01;90602.16;;;-140.63;45.51
11302;BME280;5706;50.650;13.380;2023-03-25T13:48:37;90580.06;;;-140.63;44.78
11302;BME280;5706;50.650;13.380;2023-03-25T13:51:09;90574.03;;;-140.63;45.17
11302;BME280;5706;50.650;13.380;2023-03-25T13:53:40;90656.38;;;-140.63;46.61
11302;BME280;5706;50.650;13.380;2023-03-25T14:00:28;90821.06;;;-140.63;56.11
11302;BME280;5706;50.650;13.380;2023-03-25T14:06:45;90963.66;;;-140.63;62.36
11302;BME280;5706;50.650;13.380;2023-03-25T14:12:36;90877.31;;;-140.63;62.36
11302;BME280;5706;50.650;13.380;2023-03-25T14:15:12;90865.25;;;-140.63;60.78
11302;BME280;5706;50.650;13.380;2023-03-25T14:17:45;90863.25;;;-140.63;62.99
11302;BME280;5706;50.650;13.380;2023-03-25T14:24:05;90967.69;;;-140.63;64.88
11302;BME280;5706;50.650;13.380;2023-03-25T14:27:35;90957.63;;;-140.63;64.26
11302;BME280;5706;50.650;13.380;2023-03-25T14:30:38;90973.69;;;-140.63;65.30
11302;BME280;5706;50.650;13.380;2023-03-25T14:33:08;91033.97;;;-140.63;65.13
11302;BME280;5706;50.650;13.380;2023-03-25T14:35:53;91033.97;;;-140.63;65.53
11302;BME280;5706;50.650;13.380;2023-03-25T14:38:51;91013.88;;;-140.63;65.29
11302;BME280;5706;50.650;13.380;2023-03-25T14:41:54;91062.06;;;-140.63;66.38
11302;BME280;5706;50.650;13.380;2023-03-25T14:44:23;91033.97;;;-140.63;65.94
11302;BME280;5706;50.650;13.380;2023-03-25T14:46:59;90965.66;;;-140.63;65.36
11302;BME280;5706;50.650;13.380;2023-03-25T14:49:49;90923.50;;;-140.63;65.51
11302;BME280;5706;50.650;13.380;2023-03-25T14:52:27;90913.44;;;-140.63;64.88
11302;BME280;5706;50.650;13.380;2023-03-25T14:55:08;90841.16;;;-140.63;63.49
11302;BME280;5706;50.650;13.380;2023-03-25T14:57:41;90899.38;;;-140.63;62.84
11302;BME280;5706;50.650;13.380;2023-03-25T15:00:19;90955.63;;;-140.63;62.86
11302;BME280;5706;50.650;13.380;2023-03-25T15:02:57;90937.56;;;-140.63;62.87
11302;BME280;5706;50.650;13.380;2023-03-25T15:05:29;90963.66;;;-140.63;63.25
11302;BME280;5706;50.650;13.380;2023-03-25T15:08:10;90993.78;;;-140.63;62.47
11302;BME280;5706;50.650;13.380;2023-03-25T15:10:43;90995.78;;;-140.63;62.91
11302;BME280;5706;50.650;13.380;2023-03-25T15:13:18;91009.84;;;-140.63;62.00
11302;BME280;5706;50.650;13.380;2023-03-25T19:33:26;90991.78;;;-140.63;59.60
11302;BME280;5706;50.650;13.380;2023-03-25T19:35:55;91001.81;;;-140.63;60.40
11302;BME280;5706;50.650;13.380;2023-03-25T19:38:27;91007.84;;;-140.63;59.93
11302;BME280;5706;50.650;13.380;2023-03-25T19:41:02;91050.03;;;-140.63;60.02
11302;BME280;5706;50.650;13.380;2023-03-25T19:43:31;90965.66;;;-140.63;59.31
11302;BME280;5706;50.650;13.380;2023-03-25T19:45:59;90995.78;;;-140.63;59.35
11302;BME280;5706;50.650;13.380;2023-03-25T19:48:29;90981.72;;;-140.63;59.28
11302;BME280;5706;50.650;13.380;2023-03-25T19:50:56;90975.72;;;-140.63;58.85
11302;BME280;5706;50.650;13.380;2023-03-25T19:56:34;90973.69;;;-140.63;58.95
11302;BME280;5706;50.650;13.380;2023-03-25T19:59:01;90977.72;;;-140.63;59.15
11302;BME280;5706;50.650;13.380;2023-03-25T20:01:29;90937.56;;;-140.63;60.30
11302;BME280;5706;50.650;13.380;2023-03-25T20:04:00;90987.75;;;-140.63;60.42
11302;BME280;5706;50.650;13.380;2023-03-25T20:06:29;90971.69;;;-140.63;60.98
11302;BME280;5706;50.650;13.380;2023-03-25T20:08:57;90999.81;;;-140.63;61.23
11302;BME280;5706;50.650;13.380;2023-03-25T20:11:24;90963.66;;;-140.63;61.31
11302;BME280;5706;50.650;13.380;2023-03-25T20:13:52;90983.75;;;-140.63;61.15
11302;BME280;5706;50.650;13.380;2023-03-25T20:16:33;90995.78;;;-140.63;61.31
